KSGR/SGR METAR and TAF weather

Enter ICAO airport designator
Station Type Date Time Source
KSGR METAR 2019/02/21 11:29 UTC NOAA

KSGR 211129Z AUTO 05009KT 10SM OVC028 13/08 A2991 RMK AO2 T01330083


Station Type Date Time Source
KSGR Decoded METAR 2019/02/21 11:29 UTC NOAA

SUGARLAND REGIONAL AIRPORT, TX, United States (KSGR) 29-37N 095-39W
Feb 21, 2019 - 06:29 AM EST / 2019.02.21 1129 UTC
Wind: from the NE (050 degrees) at 10 MPH (9 KT):0
Visibility: 10 mile(s):0
Sky conditions: overcast
Temperature: 55.9 F (13.3 C)
Dew Point: 46.9 F (8.3 C)
Relative Humidity: 71%
Pressure (altimeter): 29.91 in. Hg (1012 hPa)
ob: KSGR 211129Z AUTO 05009KT 10SM OVC028 13/08 A2991 RMK AO2 T01330083
cycle: 11

Station Type Date Time Source
KSGR TAF 2019/02/21 12:39 UTC NOAA

TAF KSGR 211137Z 2112/2212 04007KT P6SM VCSH OVC025
TEMPO 2113/2115 4SM SHRA SCT015 OVC025
FM211500 04008KT P6SM VCSH BKN015 OVC030
FM211700 04009KT 6SM SHRA BR BKN008 OVC012
FM212100 05008KT 6SM BR OVC007
FM220500 06007KT 5SM -DZ BR OVC004


Example: see airport list